createdAt,value
2023-04-21T00:00:55.762Z,11.07
2023-04-21T00:03:24.296Z,12.77
2023-04-21T00:05:51.754Z,9.50
2023-04-21T00:08:18.969Z,11.93
2023-04-21T00:10:46.792Z,11.68
2023-04-21T00:13:14.285Z,12.52
2023-04-21T00:15:41.284Z,8.73
2023-04-21T00:18:07.931Z,9.02
2023-04-21T00:20:34.533Z,10.20
2023-04-21T00:23:01.184Z,11.23
2023-04-21T00:25:28.099Z,9.95
2023-04-21T00:27:54.608Z,12.20
2023-04-21T00:30:21.270Z,9.98
2023-04-21T00:32:47.888Z,10.23
2023-04-21T00:35:14.414Z,9.27
2023-04-21T00:37:41.625Z,10.75
2023-04-21T00:40:09.057Z,13.80
2023-04-21T00:42:35.728Z,13.55
2023-04-21T00:45:03.833Z,12.00
2023-04-21T00:47:31.242Z,12.13
2023-04-21T00:49:58.977Z,14.07
2023-04-21T00:52:26.550Z,14.83
2023-04-21T00:54:53.684Z,14.48
2023-04-21T00:57:21.472Z,14.80
2023-04-21T00:59:48.071Z,13.95
2023-04-21T01:02:16.168Z,12.27
2023-04-21T01:04:43.963Z,9.37
2023-04-21T01:07:10.603Z,12.48
2023-04-21T01:09:37.300Z,12.52
2023-04-21T01:12:10.262Z,13.50
2023-04-21T01:14:38.843Z,13.13
2023-04-21T01:17:06.164Z,10.20
2023-04-21T01:19:35.739Z,12.05
2023-04-21T01:22:04.132Z,13.10
2023-04-21T01:24:44.948Z,14.20
2023-04-21T01:27:14.381Z,11.50
2023-04-21T01:29:42.597Z,12.67
2023-04-21T01:32:15.621Z,11.52
2023-04-21T01:34:42.429Z,13.27
2023-04-21T01:37:17.534Z,12.82
2023-04-21T01:39:52.226Z,14.25
2023-04-21T01:42:19.822Z,14.50
2023-04-21T01:44:46.995Z,13.48
2023-04-21T01:47:17.366Z,13.98
2023-04-21T01:49:43.848Z,13.85
2023-04-21T01:52:10.468Z,10.52
2023-04-21T01:54:37.048Z,12.07
2023-04-21T01:57:04.196Z,9.85
2023-04-21T01:59:30.889Z,15.25
2023-04-21T02:01:57.663Z,15.45
2023-04-21T02:04:24.407Z,14.82
2023-04-21T02:06:51.180Z,13.37
2023-04-21T02:09:18.201Z,15.15
2023-04-21T02:11:45.166Z,12.02
2023-04-21T02:14:11.935Z,12.80
2023-04-21T02:16:40.594Z,13.18
2023-04-21T02:19:07.560Z,13.77
2023-04-21T02:21:34.096Z,14.77
2023-04-21T02:24:00.598Z,11.02
2023-04-21T02:26:27.101Z,13.98
2023-04-21T02:28:54.096Z,14.23
2023-04-21T02:31:20.681Z,14.83
2023-04-21T02:33:48.395Z,14.35
2023-04-21T02:36:15.307Z,16.05
2023-04-21T02:38:41.825Z,16.08
2023-04-21T02:41:10.042Z,15.20
2023-04-21T02:43:36.619Z,13.50
2023-04-21T02:46:07.585Z,15.18
2023-04-21T02:48:35.358Z,11.43
2023-04-21T02:51:02.129Z,12.70
2023-04-21T02:53:29.056Z,13.35
2023-04-21T02:55:56.397Z,13.40
2023-04-21T02:58:23.599Z,15.10
2023-04-21T03:00:50.253Z,17.33
2023-04-21T03:03:16.965Z,17.40
2023-04-21T03:05:43.727Z,16.50
2023-04-21T03:08:10.288Z,16.87
2023-04-21T03:10:37.836Z,17.60
2023-04-21T03:13:04.449Z,17.25
2023-04-21T03:15:32.066Z,18.45
2023-04-21T03:18:01.365Z,17.45
2023-04-21T03:20:28.132Z,17.50
2023-04-21T03:22:54.630Z,15.27
2023-04-21T03:25:21.762Z,15.23
2023-04-21T03:27:48.294Z,12.95
2023-04-21T03:30:15.350Z,17.15
2023-04-21T03:32:41.959Z,15.70
2023-04-21T03:35:08.502Z,11.52
2023-04-21T03:37:35.073Z,13.68
2023-04-21T03:40:01.712Z,14.85
2023-04-21T03:42:30.117Z,16.08
2023-04-21T03:44:57.142Z,15.03
2023-04-21T03:47:24.050Z,14.95
2023-04-21T03:49:51.572Z,14.32
2023-04-21T03:52:18.071Z,14.80
2023-04-21T03:54:44.658Z,15.48
2023-04-21T03:57:11.378Z,13.23
2023-04-21T03:59:37.969Z,13.88
2023-04-21T04:02:04.706Z,12.48
2023-04-21T04:04:31.753Z,15.68
2023-04-21T04:06:58.623Z,13.93
2023-04-21T04:09:25.316Z,12.53
2023-04-21T04:11:51.851Z,13.23
2023-04-21T04:14:18.346Z,15.82
2023-04-21T04:16:44.944Z,13.32
2023-04-21T04:19:11.825Z,12.25
2023-04-21T04:21:38.956Z,10.53
2023-04-21T04:24:05.684Z,12.15
2023-04-21T04:26:35.768Z,13.32
2023-04-21T04:29:02.397Z,11.45
2023-04-21T04:31:30.284Z,12.18
2023-04-21T04:33:57.512Z,10.13
2023-04-21T04:36:25.061Z,10.55
2023-04-21T04:38:51.781Z,12.63
2023-04-21T04:41:19.588Z,14.02
2023-04-21T04:43:46.501Z,13.65
2023-04-21T04:46:13.381Z,14.37
2023-04-21T04:48:40.498Z,13.82
2023-04-21T04:51:07.060Z,12.85
2023-04-21T04:53:33.541Z,12.57
2023-04-21T04:56:00.042Z,12.98
2023-04-21T04:58:26.826Z,17.40
2023-04-21T05:00:53.327Z,12.32
2023-04-21T05:03:20.169Z,12.45
2023-04-21T05:05:46.824Z,14.63
2023-04-21T05:08:14.612Z,9.98
2023-04-21T05:10:42.914Z,14.87
2023-04-21T05:13:09.512Z,14.63
2023-04-21T05:15:36.054Z,14.25
2023-04-21T05:18:02.708Z,15.32
2023-04-21T05:20:29.379Z,13.70
2023-04-21T05:22:55.952Z,16.37
2023-04-21T05:25:22.462Z,15.80
2023-04-21T05:27:49.142Z,14.35
2023-04-21T05:30:16.135Z,14.95
2023-04-21T05:32:42.759Z,15.23
2023-04-21T05:35:09.710Z,13.83
2023-04-21T05:37:36.284Z,14.93
2023-04-21T05:40:02.821Z,16.30
2023-04-21T05:42:29.339Z,16.05
2023-04-21T05:44:55.845Z,17.15
2023-04-21T05:47:22.395Z,11.83
2023-04-21T05:49:53.430Z,13.45
2023-04-21T05:52:21.645Z,14.63
2023-04-21T05:54:48.298Z,15.52
2023-04-21T05:57:16.212Z,15.45
2023-04-21T05:59:43.695Z,16.43
2023-04-21T06:02:11.322Z,15.02
2023-04-21T06:04:38.401Z,14.82
2023-04-21T06:07:07.046Z,14.15
2023-04-21T06:09:34.397Z,14.00
2023-04-21T06:12:01.747Z,15.27
2023-04-21T06:14:28.291Z,14.55
2023-04-21T06:16:54.795Z,16.27
2023-04-21T06:19:21.329Z,16.10
2023-04-21T06:21:47.863Z,16.92
2023-04-21T06:24:14.464Z,16.37
2023-04-21T06:26:40.994Z,16.48
2023-04-21T06:29:07.546Z,15.23
2023-04-21T06:31:34.083Z,15.85
2023-04-21T06:34:00.759Z,15.27
2023-04-21T06:36:27.434Z,16.87
2023-04-21T06:38:53.993Z,15.27
2023-04-21T06:41:22.224Z,14.98
2023-04-21T06:43:50.227Z,15.43
2023-04-21T06:46:16.750Z,14.05
2023-04-21T06:48:43.326Z,16.00
2023-04-21T06:51:09.861Z,15.43
2023-04-21T06:53:37.589Z,14.70
2023-04-21T06:56:04.250Z,13.85
2023-04-21T06:58:30.762Z,14.20
2023-04-21T07:00:57.367Z,14.40
2023-04-21T07:03:24.501Z,14.05
2023-04-21T07:05:51.135Z,15.48
2023-04-21T07:08:17.690Z,16.10
2023-04-21T07:10:44.199Z,14.45
2023-04-21T07:13:10.764Z,15.30
2023-04-21T07:15:37.258Z,16.67
2023-04-21T07:18:03.927Z,14.65
2023-04-21T07:20:30.508Z,15.50
2023-04-21T07:22:57.038Z,15.27
2023-04-21T07:25:23.568Z,15.87
2023-04-21T07:27:50.217Z,16.48
2023-04-21T07:30:16.951Z,15.13
2023-04-21T07:32:43.776Z,16.83
2023-04-21T07:35:10.326Z,18.05
2023-04-21T07:37:36.953Z,13.90
2023-04-21T07:40:03.994Z,14.15
2023-04-21T07:42:30.559Z,15.18
2023-04-21T07:44:57.615Z,16.10
2023-04-21T07:47:24.269Z,15.40
2023-04-21T07:49:50.833Z,15.43
2023-04-21T07:52:17.361Z,18.17
2023-04-21T07:54:43.934Z,17.92
2023-04-21T07:57:10.939Z,15.93
2023-04-21T07:59:37.414Z,15.48
2023-04-21T08:02:04.155Z,16.00
2023-04-21T08:04:31.236Z,16.27
2023-04-21T08:06:58.524Z,15.55
2023-04-21T08:09:25.278Z,16.67
2023-04-21T08:11:51.918Z,16.20
2023-04-21T08:14:18.633Z,14.63
2023-04-21T08:16:46.976Z,15.30
2023-04-21T08:19:13.638Z,16.33
2023-04-21T08:21:40.312Z,15.93
2023-04-21T08:24:07.026Z,14.50
2023-04-21T08:26:35.341Z,15.13
2023-04-21T08:29:03.992Z,16.48
2023-04-21T08:31:31.164Z,16.08
2023-04-21T08:34:01.974Z,16.38
2023-04-21T08:36:30.104Z,17.08
2023-04-21T08:38:57.163Z,19.23
2023-04-21T08:41:24.900Z,14.63
2023-04-21T08:43:51.542Z,15.48
2023-04-21T08:46:19.034Z,20.17
2023-04-21T08:48:47.339Z,16.48
2023-04-21T08:51:21.589Z,17.50
2023-04-21T08:53:48.121Z,18.30
2023-04-21T08:56:14.953Z,16.95
2023-04-21T08:58:41.960Z,16.23
2023-04-21T09:01:08.842Z,17.75
2023-04-21T09:03:35.710Z,17.87
2023-04-21T09:06:10.216Z,14.35
2023-04-21T09:08:52.217Z,17.75
2023-04-21T09:11:19.673Z,18.38
2023-04-21T09:13:46.217Z,16.35
2023-04-21T09:16:18.611Z,17.73
2023-04-21T09:18:45.285Z,17.77
2023-04-21T09:21:13.919Z,17.45
2023-04-21T09:23:46.265Z,18.00
2023-04-21T09:26:13.923Z,18.95
2023-04-21T09:28:45.028Z,17.97
2023-04-21T09:31:24.591Z,18.05
2023-04-21T09:34:00.055Z,18.15
2023-04-21T09:36:29.790Z,19.13
2023-04-21T09:41:33.368Z,18.20
2023-04-21T09:44:04.456Z,15.90
2023-04-21T09:46:34.343Z,17.58
2023-04-21T09:49:02.152Z,18.40
2023-04-21T09:51:49.136Z,16.52
2023-04-21T09:56:53.784Z,15.27
2023-04-21T09:59:26.062Z,15.43
2023-04-21T10:01:54.040Z,15.55
2023-04-21T10:04:22.818Z,16.88
2023-04-21T10:06:51.152Z,16.83
2023-04-21T10:09:21.245Z,15.32
2023-04-21T10:11:48.144Z,17.08
2023-04-21T10:14:14.815Z,15.43
2023-04-21T10:16:42.844Z,17.27
2023-04-21T10:19:31.944Z,15.30
2023-04-21T10:21:59.053Z,17.52
2023-04-21T10:24:29.974Z,17.08
2023-04-21T10:26:59.742Z,15.07
2023-04-21T10:29:37.473Z,17.00
2023-04-21T10:32:31.524Z,17.47
2023-04-21T10:34:58.246Z,16.75
2023-04-21T10:37:24.730Z,18.45
2023-04-21T10:39:53.627Z,18.17
2023-04-21T10:42:22.965Z,17.48
2023-04-21T10:44:56.438Z,16.20
2023-04-21T10:47:44.301Z,18.98
2023-04-21T10:50:20.386Z,15.85
2023-04-21T10:52:53.629Z,16.42
2023-04-21T10:55:21.937Z,16.10
2023-04-21T10:57:49.313Z,17.53
2023-04-21T11:00:18.682Z,17.25
2023-04-21T11:02:54.071Z,15.50
2023-04-21T11:05:26.666Z,15.95
2023-04-21T11:08:02.398Z,16.83
2023-04-21T11:10:28.968Z,17.50
2023-04-21T11:12:57.924Z,17.77
2023-04-21T11:15:24.444Z,18.83
2023-04-21T11:17:51.274Z,17.55
2023-04-21T11:20:17.897Z,17.00
2023-04-21T11:22:44.385Z,17.47
2023-04-21T11:25:19.631Z,17.77
2023-04-21T11:27:56.832Z,16.40
2023-04-21T11:30:36.855Z,15.13
2023-04-21T11:33:03.490Z,16.27
2023-04-21T11:35:31.640Z,16.63
2023-04-21T11:37:58.218Z,16.63
2023-04-21T11:40:24.721Z,17.67
2023-04-21T11:42:51.255Z,15.27
2023-04-21T11:45:21.930Z,16.35
2023-04-21T11:47:48.989Z,15.60
2023-04-21T11:50:31.939Z,15.57
2023-04-21T11:52:58.541Z,13.45
2023-04-21T11:55:25.087Z,15.50
2023-04-21T11:57:51.616Z,14.77
2023-04-21T12:00:18.883Z,15.63
2023-04-21T12:02:54.718Z,15.02
2023-04-21T12:05:22.349Z,15.93
2023-04-21T12:07:48.945Z,15.00
2023-04-21T12:10:19.183Z,16.90
2023-04-21T12:12:46.246Z,14.67
2023-04-21T12:15:28.788Z,15.02
2023-04-21T12:17:55.468Z,16.58
2023-04-21T12:20:23.465Z,15.07
2023-04-21T12:22:50.591Z,16.17
2023-04-21T12:25:17.233Z,16.07
2023-04-21T12:27:51.065Z,16.55
2023-04-21T12:30:17.915Z,16.38
2023-04-21T12:32:44.630Z,15.30
2023-04-21T12:35:11.274Z,15.48
2023-04-21T12:37:37.792Z,15.27
2023-04-21T12:40:05.571Z,16.17
2023-04-21T12:42:32.137Z,16.30
2023-04-21T12:44:58.708Z,15.65
2023-04-21T12:47:25.361Z,16.45
2023-04-21T12:49:51.894Z,14.50
2023-04-21T12:52:18.479Z,15.90
2023-04-21T12:54:44.983Z,16.13
2023-04-21T12:57:11.579Z,15.68
2023-04-21T12:59:38.063Z,14.35
2023-04-21T13:02:04.829Z,15.40
2023-04-21T13:04:32.313Z,16.92
2023-04-21T13:06:59.364Z,15.38
2023-04-21T13:09:26.010Z,13.63
2023-04-21T13:11:52.549Z,15.93
2023-04-21T13:14:19.071Z,16.13
2023-04-21T13:16:45.844Z,15.45
2023-04-21T13:19:12.419Z,16.08
2023-04-21T13:21:39.002Z,14.20
2023-04-21T13:24:05.932Z,16.08
2023-04-21T13:26:35.087Z,15.57
2023-04-21T13:29:02.980Z,15.38
2023-04-21T13:31:29.752Z,15.32
2023-04-21T13:33:56.736Z,16.25
2023-04-21T13:36:23.286Z,16.60
2023-04-21T13:38:51.035Z,16.40
2023-04-21T13:41:17.598Z,16.20
2023-04-21T13:43:44.141Z,15.88
2023-04-21T13:46:10.869Z,15.40
2023-04-21T13:48:37.448Z,15.95
2023-04-21T13:51:04.279Z,15.17
2023-04-21T13:53:31.088Z,14.88
2023-04-21T13:55:59.253Z,14.98
2023-04-21T13:58:25.913Z,15.88
2023-04-21T14:00:52.457Z,15.05
2023-04-21T14:03:19.490Z,15.10
2023-04-21T14:05:46.269Z,14.57
2023-04-21T14:08:12.814Z,15.43
2023-04-21T14:10:39.406Z,15.07
2023-04-21T14:13:05.928Z,14.80
2023-04-21T14:15:32.480Z,14.30
2023-04-21T14:18:00.479Z,15.18
2023-04-21T14:20:27.482Z,13.73
2023-04-21T14:22:54.186Z,14.50
2023-04-21T14:25:20.980Z,15.18
2023-04-21T14:27:47.633Z,14.73
2023-04-21T14:30:14.646Z,14.45
2023-04-21T14:32:45.672Z,15.18
2023-04-21T14:35:13.449Z,15.30
2023-04-21T14:37:40.845Z,15.02
2023-04-21T14:40:08.731Z,14.53
2023-04-21T14:42:35.776Z,15.00
2023-04-21T14:45:02.316Z,15.20
2023-04-21T14:47:29.113Z,14.63
2023-04-21T14:49:55.930Z,14.30
2023-04-21T14:52:25.695Z,15.10
2023-04-21T14:54:52.605Z,14.43
2023-04-21T14:57:21.740Z,14.48
2023-04-21T14:59:52.622Z,14.60
2023-04-21T15:02:20.694Z,14.15
2023-04-21T15:04:47.628Z,14.73
2023-04-21T15:07:15.111Z,15.05
2023-04-21T15:09:47.465Z,15.95
2023-04-21T15:12:14.680Z,15.73
2023-04-21T15:14:41.255Z,16.65
2023-04-21T15:17:07.791Z,16.40
2023-04-21T15:19:34.563Z,15.82
2023-04-21T15:22:01.252Z,16.55
2023-04-21T15:24:27.784Z,16.48
2023-04-21T15:26:54.510Z,16.77
2023-04-21T15:29:21.141Z,16.37
2023-04-21T15:35:34.469Z,17.48
2023-04-21T15:38:00.995Z,16.60
2023-04-21T15:40:27.617Z,16.90
2023-04-21T15:42:54.161Z,17.07
2023-04-21T15:45:20.830Z,17.17
2023-04-21T15:47:47.476Z,16.15
2023-04-21T15:50:14.028Z,15.63
2023-04-21T15:52:43.302Z,16.20
2023-04-21T15:55:12.966Z,17.80
2023-04-21T15:57:39.550Z,16.45
2023-04-21T16:00:07.225Z,17.58
2023-04-21T16:02:34.011Z,16.27
2023-04-21T16:05:01.202Z,16.50
2023-04-21T16:07:28.479Z,17.30
2023-04-21T16:09:55.318Z,15.75
2023-04-21T16:12:21.861Z,16.25
2023-04-21T16:14:57.519Z,16.38
2023-04-21T16:17:28.208Z,16.00
2023-04-21T16:19:54.853Z,15.53
2023-04-21T16:22:21.460Z,16.50
2023-04-21T16:24:48.458Z,15.82
2023-04-21T16:27:15.463Z,15.88
2023-04-21T16:29:42.015Z,16.10
2023-04-21T16:32:08.673Z,15.50
2023-04-21T16:34:35.607Z,16.50
2023-04-21T16:37:02.360Z,16.35
2023-04-21T16:39:28.964Z,16.50
2023-04-21T16:41:55.574Z,15.30
2023-04-21T16:44:22.112Z,15.13
2023-04-21T16:46:48.644Z,16.02
2023-04-21T16:49:15.364Z,16.70
2023-04-21T16:51:44.880Z,15.68
2023-04-21T16:54:11.839Z,16.30
2023-04-21T16:56:38.739Z,15.57
2023-04-21T16:59:05.451Z,15.38
2023-04-21T17:01:32.345Z,15.18
2023-04-21T17:03:59.106Z,16.08
2023-04-21T17:06:25.726Z,13.52
2023-04-21T17:08:59.365Z,16.33
2023-04-21T17:11:27.533Z,16.42
2023-04-21T17:13:54.138Z,17.55
2023-04-21T17:16:21.025Z,16.05
2023-04-21T17:18:47.652Z,16.17
2023-04-21T17:21:14.192Z,16.47
2023-04-21T17:23:40.984Z,17.00
2023-04-21T17:26:08.197Z,16.67
2023-04-21T17:28:35.850Z,16.38
2023-04-21T17:31:14.340Z,16.70
2023-04-21T17:33:42.430Z,16.40
2023-04-21T17:36:08.975Z,16.75
2023-04-21T17:38:35.537Z,17.48
2023-04-21T17:41:02.937Z,16.48
2023-04-21T17:43:29.419Z,17.52
2023-04-21T17:45:56.021Z,15.80
2023-04-21T17:48:22.677Z,16.15
2023-04-21T17:50:49.252Z,16.23
2023-04-21T17:53:16.277Z,16.77
2023-04-21T17:55:43.009Z,17.63
2023-04-21T17:58:12.285Z,17.20
2023-04-21T18:00:39.319Z,16.55
2023-04-21T18:03:05.968Z,16.33
2023-04-21T18:05:32.686Z,17.67
2023-04-21T18:07:59.444Z,16.77
2023-04-21T18:10:27.639Z,16.60
2023-04-21T18:12:56.371Z,17.92
2023-04-21T18:15:22.854Z,16.92
2023-04-21T18:17:49.600Z,16.95
2023-04-21T18:20:16.218Z,18.20
2023-04-21T18:22:44.504Z,17.50
2023-04-21T18:25:11.893Z,17.88
2023-04-21T18:27:39.360Z,17.75
2023-04-21T18:30:07.423Z,16.85
2023-04-21T18:32:34.677Z,18.60
2023-04-21T18:35:02.006Z,19.13
2023-04-21T18:37:28.556Z,19.40
2023-04-21T18:39:55.165Z,15.80
2023-04-21T18:42:21.694Z,14.93
2023-04-21T18:44:48.242Z,13.65
2023-04-21T18:47:15.682Z,11.80
2023-04-21T18:49:42.338Z,10.93
2023-04-21T18:52:09.437Z,10.20
2023-04-21T18:54:36.301Z,7.38
2023-04-21T18:57:04.012Z,6.40
2023-04-21T18:59:30.900Z,7.30
2023-04-21T19:01:57.791Z,7.03
2023-04-21T19:04:24.583Z,8.57
2023-04-21T19:06:51.132Z,8.20
2023-04-21T19:09:17.670Z,8.88
2023-04-21T19:11:44.445Z,9.30
2023-04-21T19:14:10.998Z,8.77
2023-04-21T19:16:38.086Z,9.40
2023-04-21T19:19:05.178Z,9.40
2023-04-21T19:21:33.047Z,9.40
2023-04-21T19:23:59.731Z,8.57
2023-04-21T19:26:26.341Z,8.50
2023-04-21T19:28:52.858Z,9.15
2023-04-21T19:31:21.496Z,8.75
2023-04-21T19:33:49.437Z,9.35
2023-04-21T19:36:16.047Z,9.00
2023-04-21T19:38:43.061Z,10.00
2023-04-21T19:41:09.621Z,10.30
2023-04-21T19:43:36.170Z,9.07
2023-04-21T19:46:02.806Z,10.63
2023-04-21T19:48:29.415Z,11.70
2023-04-21T19:50:56.024Z,11.07
2023-04-21T19:53:23.161Z,11.00
2023-04-21T19:55:52.543Z,11.45
2023-04-21T19:58:32.128Z,15.27
2023-04-21T20:01:06.077Z,11.30
2023-04-21T20:03:33.248Z,11.75
2023-04-21T20:06:01.588Z,12.57
2023-04-21T20:08:29.073Z,10.57
2023-04-21T20:10:55.634Z,11.80
2023-04-21T20:13:22.164Z,10.93
2023-04-21T20:15:48.839Z,13.35
2023-04-21T20:18:15.402Z,13.52
2023-04-21T20:20:41.985Z,14.25
2023-04-21T20:23:08.630Z,14.55
2023-04-21T20:25:35.308Z,12.77
2023-04-21T20:28:01.850Z,12.13
2023-04-21T20:30:28.349Z,11.68
2023-04-21T20:32:54.884Z,12.00
2023-04-21T20:35:21.473Z,11.60
2023-04-21T20:37:48.104Z,13.13
2023-04-21T20:40:14.793Z,10.65
2023-04-21T20:42:45.098Z,14.57
2023-04-21T20:45:12.808Z,12.85
2023-04-21T20:47:39.584Z,11.30
2023-04-21T20:50:07.267Z,11.67
2023-04-21T20:52:33.922Z,11.43
2023-04-21T20:55:00.435Z,12.02
2023-04-21T20:57:27.262Z,12.68
2023-04-21T20:59:53.889Z,10.82
2023-04-21T21:02:20.644Z,11.30
2023-04-21T21:04:47.754Z,12.55
2023-04-21T21:07:14.750Z,13.05
2023-04-21T21:09:41.505Z,14.38
2023-04-21T21:12:08.176Z,15.80
2023-04-21T21:14:34.718Z,14.17
2023-04-21T21:17:01.522Z,13.23
2023-04-21T21:19:28.165Z,11.75
2023-04-21T21:21:54.681Z,13.48
2023-04-21T21:24:21.245Z,12.48
2023-04-21T21:26:48.011Z,11.13
2023-04-21T21:29:14.564Z,10.30
2023-04-21T21:31:41.126Z,9.57
2023-04-21T21:34:07.683Z,9.40
2023-04-21T21:36:34.426Z,8.23
2023-04-21T21:39:00.922Z,6.50
2023-04-21T21:41:27.514Z,4.90
2023-04-21T21:43:54.000Z,5.15
2023-04-21T21:46:22.079Z,3.58
2023-04-21T21:48:49.487Z,3.47
2023-04-21T21:51:16.160Z,3.70
2023-04-21T21:53:42.704Z,3.70
2023-04-21T21:56:09.315Z,3.08
2023-04-21T21:58:36.283Z,2.95
2023-04-21T22:01:02.843Z,2.80
2023-04-21T22:03:29.487Z,3.50
2023-04-21T22:05:56.324Z,3.85
2023-04-21T22:08:22.838Z,3.33
2023-04-21T22:10:49.341Z,3.95
2023-04-21T22:13:15.875Z,3.42
2023-04-21T22:15:42.639Z,3.20
2023-04-21T22:18:09.679Z,3.58
2023-04-21T22:20:36.170Z,3.85
2023-04-21T22:23:03.653Z,3.90
2023-04-21T22:25:30.582Z,3.92
2023-04-21T22:27:57.579Z,3.90
2023-04-21T22:30:24.262Z,3.53
2023-04-21T22:32:50.870Z,3.65
2023-04-21T22:35:17.504Z,3.45
2023-04-21T22:37:43.971Z,3.80
2023-04-21T22:40:10.860Z,3.40
2023-04-21T22:42:37.503Z,3.85
2023-04-21T22:45:05.372Z,3.70
2023-04-21T22:47:32.737Z,3.28
2023-04-21T22:49:59.566Z,3.38
2023-04-21T22:52:26.866Z,3.40
2023-04-21T22:54:53.896Z,3.30
2023-04-21T22:57:21.563Z,3.63
2023-04-21T22:59:48.127Z,2.83
2023-04-21T23:02:14.793Z,3.25
2023-04-21T23:04:41.419Z,3.30
2023-04-21T23:07:08.044Z,3.38
2023-04-21T23:09:34.577Z,2.30
2023-04-21T23:12:01.465Z,3.00
2023-04-21T23:14:28.054Z,3.90
2023-04-21T23:16:54.778Z,3.53
2023-04-21T23:19:21.288Z,3.22
2023-04-21T23:21:47.840Z,3.72
2023-04-21T23:24:14.412Z,3.85
2023-04-21T23:26:41.137Z,3.35
2023-04-21T23:29:07.665Z,3.70
2023-04-21T23:31:34.410Z,3.33
2023-04-21T23:34:00.950Z,2.90
2023-04-21T23:36:27.717Z,3.05
2023-04-21T23:38:54.211Z,3.13
2023-04-21T23:41:21.335Z,3.07
2023-04-21T23:43:47.989Z,3.30
2023-04-21T23:46:15.103Z,2.92
2023-04-21T23:48:41.910Z,3.13
2023-04-21T23:51:08.516Z,3.72
2023-04-21T23:53:35.178Z,3.83
2023-04-21T23:56:01.693Z,3.70
2023-04-21T23:58:28.176Z,2.50
